Time;durP1;ratioP1;P1;durP2;ratioP2;P2;SDS_P1;SDS_P2;PMS_P1;PMS_P2;Temp;Humidity;BMP_temperature;BMP_pressure;BME280_temperature;BME280_humidity;BME280_pressure;Samples;Min_cycle;Max_cycle;Signal;HPM_P1;HPM_P2
2021/04/22 00:00:27;;;;;;;13.23;3.83;;;7.00;80.20;;;;;;2097383;28;20557;-67
2021/04/22 00:01:28;;;;;;;11.32;3.40;;;7.00;80.70;;;;;;2097699;28;20025;-67
2021/04/22 00:02:28;;;;;;;12.85;3.30;;;7.00;80.80;;;;;;2096557;28;20025;-67
2021/04/22 00:03:29;;;;;;;13.80;3.40;;;7.00;81.10;;;;;;2097595;28;20410;-67
2021/04/22 00:04:29;;;;;;;10.68;2.83;;;7.00;81.70;;;;;;2097489;28;20091;-67
2021/04/22 00:05:34;;;;;;;9.98;3.70;;;6.90;81.50;;;;;;2097594;28;20116;-67
2021/04/22 00:06:34;;;;;;;12.02;2.78;;;6.90;82.10;;;;;;2097725;28;20047;-67
2021/04/22 00:07:35;;;;;;;10.90;2.88;;;6.90;82.10;;;;;;2097368;28;20075;-67
2021/04/22 00:08:35;;;;;;;14.43;3.53;;;6.90;82.00;;;;;;2097410;28;20499;-67
2021/04/22 00:09:37;;;;;;;14.13;3.13;;;6.80;82.40;;;;;;2099614;28;20021;-67
2021/04/22 00:10:41;;;;;;;8.73;2.50;;;6.80;82.30;;;;;;2105705;28;20027;-67
2021/04/22 00:11:42;;;;;;;11.27;3.10;;;6.80;82.90;;;;;;2106007;28;20028;-67
2021/04/22 00:12:43;;;;;;;14.23;2.83;;;6.80;83.40;;;;;;2104269;28;20032;-67
2021/04/22 00:13:45;;;;;;;14.23;2.97;;;6.70;82.50;;;;;;2099154;28;20039;-67
2021/04/22 00:14:46;;;;;;;15.20;4.47;;;6.70;82.80;;;;;;2102118;28;20429;-67
2021/04/22 00:15:47;;;;;;;14.82;3.17;;;6.70;83.60;;;;;;2099121;28;20032;-67
2021/04/22 00:16:48;;;;;;;11.90;2.92;;;6.60;83.90;;;;;;2097244;28;20028;-67
2021/04/22 00:17:53;;;;;;;10.82;2.78;;;6.60;84.30;;;;;;2097236;28;20136;-67
2021/04/22 00:18:53;;;;;;;13.75;3.33;;;6.60;83.60;;;;;;2097513;28;20032;-66
2021/04/22 00:19:54;;;;;;;8.85;3.00;;;6.60;84.20;;;;;;2097342;28;20025;-67
2021/04/22 00:20:55;;;;;;;13.50;2.88;;;6.60;84.80;;;;;;2097100;28;20013;-67
2021/04/22 00:21:55;;;;;;;10.38;3.55;;;6.60;83.90;;;;;;2097403;28;20025;-67
2021/04/22 00:22:56;;;;;;;13.27;3.72;;;6.50;84.90;;;;;;2096585;28;20020;-67
2021/04/22 00:23:56;;;;;;;13.25;2.92;;;6.50;85.10;;;;;;2096494;28;20486;-67
2021/04/22 00:24:57;;;;;;;12.00;3.20;;;6.50;85.70;;;;;;2096669;28;20372;-67
2021/04/22 00:25:57;;;;;;;10.13;3.22;;;6.50;84.80;;;;;;2097207;28;20021;-67
2021/04/22 00:26:58;;;;;;;10.77;2.42;;;6.50;84.80;;;;;;2097660;28;20032;-67
2021/04/22 00:28:05;;;;;;;11.05;3.08;;;6.50;85.90;;;;;;2101503;28;20671;-67
2021/04/22 00:29:06;;;;;;;11.65;3.17;;;6.40;87.90;;;;;;2099379;28;20025;-67
2021/04/22 00:30:12;;;;;;;9.88;3.20;;;6.40;86.90;;;;;;2101555;28;20042;-67
2021/04/22 00:31:13;;;;;;;9.55;2.63;;;6.40;86.20;;;;;;2095886;28;20051;-67
2021/04/22 00:32:15;;;;;;;13.43;3.20;;;6.40;86.80;;;;;;2096767;28;20024;-67
2021/04/22 00:33:17;;;;;;;11.45;2.72;;;6.30;86.30;;;;;;2097064;28;20031;-67
2021/04/22 00:34:18;;;;;;;11.30;3.50;;;6.30;87.00;;;;;;2096708;28;20021;-67
2021/04/22 00:35:19;;;;;;;11.02;3.30;;;6.30;87.30;;;;;;2097308;28;20078;-67
2021/04/22 00:36:19;;;;;;;20.30;3.38;;;6.30;87.80;;;;;;2096952;28;20024;-67
2021/04/22 00:37:20;;;;;;;11.63;3.63;;;6.30;88.40;;;;;;2097369;28;20028;-67
2021/04/22 00:38:21;;;;;;;13.00;3.03;;;6.20;88.00;;;;;;2097032;28;20081;-67
2021/04/22 00:39:21;;;;;;;12.60;3.05;;;6.20;88.20;;;;;;2097808;28;20024;-67
2021/04/22 00:40:25;;;;;;;11.23;3.42;;;6.20;88.00;;;;;;2099357;28;20043;-67
2021/04/22 00:41:26;;;;;;;14.05;3.67;;;6.20;88.50;;;;;;2105590;28;20032;-67
2021/04/22 00:42:27;;;;;;;12.00;3.25;;;6.20;88.40;;;;;;2104843;28;20111;-67
2021/04/22 00:43:27;;;;;;;13.25;3.10;;;6.20;87.50;;;;;;2105272;28;20020;-66
2021/04/22 00:44:28;;;;;;;15.32;3.58;;;6.10;88.30;;;;;;2096664;28;20027;-66
2021/04/22 00:45:29;;;;;;;15.35;3.75;;;6.20;88.00;;;;;;2101073;28;20059;-67
2021/04/22 00:46:30;;;;;;;15.30;3.25;;;6.10;88.40;;;;;;2102453;28;20444;-67
2021/04/22 00:47:31;;;;;;;11.82;2.78;;;6.10;89.40;;;;;;2103075;28;20024;-67
2021/04/22 00:48:32;;;;;;;13.77;3.55;;;6.10;89.50;;;;;;2099041;28;20048;-67
2021/04/22 00:49:32;;;;;;;11.32;3.10;;;6.10;89.80;;;;;;2097187;28;20033;-67
2021/04/22 00:50:35;;;;;;;12.68;3.83;;;6.00;89.60;;;;;;2103320;28;20107;-67
2021/04/22 00:51:36;;;;;;;10.75;3.08;;;6.00;89.60;;;;;;2103890;28;20050;-67
2021/04/22 00:52:38;;;;;;;8.90;2.80;;;6.00;89.70;;;;;;2096545;28;20029;-67
2021/04/22 00:53:39;;;;;;;14.27;3.20;;;6.00;90.20;;;;;;2096935;28;20095;-67
2021/04/22 00:54:40;;;;;;;9.75;3.33;;;6.00;90.30;;;;;;2097009;28;20020;-67
2021/04/22 00:55:41;;;;;;;12.60;3.92;;;6.00;90.00;;;;;;2104673;28;20039;-67
2021/04/22 00:56:42;;;;;;;12.13;3.13;;;5.90;90.40;;;;;;2100709;28;20032;-67
2021/04/22 00:57:42;;;;;;;10.38;2.72;;;5.90;90.60;;;;;;2105636;28;20052;-67
2021/04/22 00:58:43;;;;;;;14.50;3.42;;;5.90;90.50;;;;;;2098941;28;20048;-67
2021/04/22 00:59:43;;;;;;;10.77;3.17;;;5.90;90.40;;;;;;2097194;28;20020;-67
2021/04/22 01:00:53;;;;;;;9.30;3.22;;;5.90;90.60;;;;;;2097176;28;20029;-68
2021/04/22 01:01:54;;;;;;;11.90;2.97;;;5.80;90.60;;;;;;2102043;28;20020;-68
2021/04/22 01:02:54;;;;;;;14.85;3.88;;;5.80;90.50;;;;;;2104492;28;20020;-68
2021/04/22 01:03:55;;;;;;;15.13;3.28;;;5.70;91.00;;;;;;2100637;28;20071;-68
2021/04/22 01:04:56;;;;;;;13.30;3.20;;;5.80;91.20;;;;;;2096955;28;20052;-68
2021/04/22 01:06:02;;;;;;;10.18;2.90;;;5.70;91.20;;;;;;2096867;28;20780;-68
2021/04/22 01:07:03;;;;;;;9.23;2.88;;;5.70;91.80;;;;;;2088729;28;20021;-68
2021/04/22 01:08:04;;;;;;;16.40;3.72;;;5.70;91.10;;;;;;2092792;28;20024;-68
2021/04/22 01:09:06;;;;;;;13.20;3.40;;;5.70;91.40;;;;;;2096269;28;20560;-68
2021/04/22 01:10:08;;;;;;;16.58;3.70;;;5.60;91.50;;;;;;2096649;28;20051;-68
2021/04/22 01:11:09;;;;;;;14.60;3.53;;;5.60;91.20;;;;;;2096943;28;20030;-68
2021/04/22 01:12:11;;;;;;;9.05;2.80;;;5.60;91.30;;;;;;2095503;28;20021;-68
2021/04/22 01:13:11;;;;;;;11.50;2.97;;;5.60;91.40;;;;;;2097205;28;20086;-68
2021/04/22 01:14:12;;;;;;;13.25;3.60;;;5.60;91.70;;;;;;2102520;28;20058;-68
2021/04/22 01:15:19;;;;;;;12.65;3.72;;;5.60;92.00;;;;;;2105323;28;20061;-68
2021/04/22 01:16:19;;;;;;;13.43;4.03;;;5.60;91.90;;;;;;2102592;28;20024;-68
2021/04/22 01:17:20;;;;;;;14.13;3.63;;;5.60;91.70;;;;;;2100301;28;20025;-68
2021/04/22 01:18:21;;;;;;;16.30;4.55;;;5.60;91.80;;;;;;2097001;28;20048;-68
2021/04/22 01:19:22;;;;;;;15.27;3.78;;;5.50;91.90;;;;;;2100092;28;20901;-68
2021/04/22 01:20:28;;;;;;;12.82;3.42;;;5.50;91.90;;;;;;2105440;28;20020;-68
2021/04/22 01:21:29;;;;;;;12.80;3.65;;;5.50;92.30;;;;;;2104867;28;20024;-68
2021/04/22 01:22:29;;;;;;;16.90;4.05;;;5.50;92.40;;;;;;2104631;28;20641;-68
2021/04/22 01:23:30;;;;;;;15.45;4.40;;;5.50;93.10;;;;;;2104855;28;20024;-68
2021/04/22 01:24:30;;;;;;;11.68;3.28;;;5.50;93.20;;;;;;2098660;28;20043;-68
2021/04/22 01:25:35;;;;;;;9.98;3.28;;;5.50;92.60;;;;;;2096489;28;20055;-68
2021/04/22 01:26:36;;;;;;;15.73;4.53;;;5.60;92.90;;;;;;2104897;28;20028;-68
2021/04/22 01:27:38;;;;;;;12.70;3.20;;;5.40;92.50;;;;;;2099001;28;20356;-68
2021/04/22 01:28:38;;;;;;;14.75;3.88;;;5.40;92.20;;;;;;2096825;28;20469;-68
2021/04/22 01:29:39;;;;;;;11.23;4.03;;;5.40;92.70;;;;;;2096748;28;21041;-68
2021/04/22 01:30:45;;;;;;;14.13;3.40;;;5.40;93.00;;;;;;2096816;28;20062;-68
2021/04/22 01:31:46;;;;;;;13.23;3.40;;;5.40;93.50;;;;;;2096035;28;20174;-68
2021/04/22 01:32:46;;;;;;;13.73;3.55;;;5.40;93.30;;;;;;2095399;28;20028;-68
2021/04/22 01:33:47;;;;;;;15.70;3.67;;;5.40;92.50;;;;;;2096441;28;20033;-68
2021/04/22 01:34:48;;;;;;;11.50;3.58;;;5.40;92.90;;;;;;2096836;28;20031;-68
2021/04/22 01:35:52;;;;;;;12.98;3.25;;;5.30;93.00;;;;;;2102104;28;20475;-68
2021/04/22 01:36:52;;;;;;;12.27;3.42;;;5.30;93.20;;;;;;2105078;28;20055;-68
2021/04/22 01:37:53;;;;;;;16.85;3.65;;;5.30;93.40;;;;;;2104398;28;20020;-68
2021/04/22 01:38:54;;;;;;;13.88;3.75;;;5.30;93.40;;;;;;2100619;28;20016;-68
2021/04/22 01:39:55;;;;;;;11.35;3.20;;;5.30;93.60;;;;;;2096870;28;20021;-68
2021/04/22 01:40:57;;;;;;;12.48;3.58;;;5.30;93.90;;;;;;2103252;28;20514;-68
2021/04/22 01:41:57;;;;;;;12.82;3.20;;;5.30;93.70;;;;;;2104671;28;20059;-68
2021/04/22 01:42:58;;;;;;;15.48;3.42;;;5.20;93.30;;;;;;2104579;28;20020;-68
2021/04/22 01:43:59;;;;;;;13.07;3.88;;;5.30;93.70;;;;;;2095195;28;23102;-68
2021/04/22 01:45:00;;;;;;;10.15;3.33;;;5.30;93.80;;;;;;2096190;28;20063;-68
2021/04/22 01:46:01;;;;;;;12.30;3.45;;;5.20;93.80;;;;;;2096344;28;20371;-68
2021/04/22 01:47:02;;;;;;;20.75;3.38;;;5.20;93.90;;;;;;2099529;28;20083;-68
2021/04/22 01:48:04;;;;;;;13.15;3.90;;;5.20;93.90;;;;;;2096260;28;20531;-68
2021/04/22 01:49:05;;;;;;;12.48;4.05;;;5.20;94.30;;;;;;2096875;28;20067;-68
2021/04/22 01:50:09;;;;;;;10.90;3.13;;;5.20;94.30;;;;;;2096436;28;20033;-68
2021/04/22 01:51:10;;;;;;;11.95;3.90;;;5.20;93.60;;;;;;2097022;28;20302;-68
2021/04/22 01:52:10;;;;;;;16.10;3.80;;;5.20;93.80;;;;;;2095911;28;20050;-68
2021/04/22 01:53:12;;;;;;;14.63;3.75;;;5.20;94.30;;;;;;2096633;28;20028;-68
2021/04/22 01:54:12;;;;;;;11.70;3.78;;;5.10;94.40;;;;;;2096539;28;20590;-68
2021/04/22 01:55:20;;;;;;;10.93;3.08;;;5.10;93.90;;;;;;2097291;28;20032;-68
2021/04/22 01:56:21;;;;;;;13.57;3.63;;;5.10;94.30;;;;;;2096596;28;20017;-68
2021/04/22 01:57:22;;;;;;;17.42;3.83;;;5.10;94.20;;;;;;2096228;28;20025;-68
2021/04/22 01:58:25;;;;;;;12.25;3.58;;;5.10;94.20;;;;;;2095652;28;20388;-68
2021/04/22 01:59:26;;;;;;;17.77;3.67;;;5.10;94.30;;;;;;2096929;28;20037;-68
2021/04/22 02:00:32;;;;;;;8.23;3.47;;;5.10;94.50;;;;;;2104489;28;20031;-68
2021/04/22 02:01:33;;;;;;;14.35;3.05;;;5.10;94.50;;;;;;2104664;28;20030;-68
2021/04/22 02:02:33;;;;;;;16.45;4.38;;;5.10;94.10;;;;;;2097158;28;20032;-68
2021/04/22 02:03:34;;;;;;;9.07;3.35;;;5.00;94.10;;;;;;2103054;28;20099;-68
2021/04/22 02:04:35;;;;;;;11.98;3.10;;;5.00;94.20;;;;;;2097717;28;20047;-67
2021/04/22 02:05:37;;;;;;;11.90;3.33;;;5.00;93.60;;;;;;2098085;28;20494;-67
2021/04/22 02:06:38;;;;;;;14.55;4.53;;;5.00;93.60;;;;;;2098129;28;20527;-67
2021/04/22 02:07:39;;;;;;;15.25;4.07;;;5.00;94.00;;;;;;2097402;28;20055;-67
2021/04/22 02:08:39;;;;;;;12.73;3.65;;;5.00;94.00;;;;;;2099023;28;20040;-67
2021/04/22 02:09:40;;;;;;;18.02;3.78;;;5.00;94.20;;;;;;2100120;28;20035;-68
2021/04/22 02:10:42;;;;;;;14.20;4.00;;;4.90;94.60;;;;;;2106327;28;20107;-68
2021/04/22 02:11:43;;;;;;;12.88;3.65;;;4.90;95.00;;;;;;2099485;28;20039;-68
2021/04/22 02:12:44;;;;;;;10.55;3.28;;;4.90;95.10;;;;;;2098550;28;20063;-68
2021/04/22 02:13:45;;;;;;;11.10;3.78;;;4.90;95.30;;;;;;2103664;28;20017;-68
2021/04/22 02:14:45;;;;;;;15.63;3.58;;;4.90;95.20;;;;;;2103216;28;20035;-68
2021/04/22 02:15:47;;;;;;;14.65;4.35;;;4.90;94.80;;;;;;2106038;28;20028;-68
2021/04/22 02:16:48;;;;;;;12.30;3.88;;;4.90;94.80;;;;;;2097861;28;20017;-68
2021/04/22 02:17:49;;;;;;;10.93;3.50;;;4.90;95.10;;;;;;2101102;28;20046;-68
2021/04/22 02:18:49;;;;;;;10.52;3.15;;;4.80;95.40;;;;;;2103522;28;20028;-68
2021/04/22 02:19:50;;;;;;;10.07;3.15;;;4.80;95.20;;;;;;2097142;28;20368;-68
2021/04/22 02:20:51;;;;;;;9.98;3.03;;;4.90;94.60;;;;;;2097612;28;20024;-68
2021/04/22 02:21:52;;;;;;;8.73;3.42;;;4.80;94.40;;;;;;2097887;28;20020;-68
2021/04/22 02:22:53;;;;;;;20.48;4.22;;;4.80;94.20;;;;;;2097246;28;20028;-68
2021/04/22 02:23:53;;;;;;;10.38;4.10;;;4.80;94.70;;;;;;2097643;28;20029;-68
2021/04/22 02:24:54;;;;;;;15.45;3.65;;;4.80;95.10;;;;;;2097323;28;20032;-67
2021/04/22 02:25:54;;;;;;;10.75;3.53;;;4.80;95.20;;;;;;2097516;28;20049;-68
2021/04/22 02:26:55;;;;;;;17.42;4.15;;;4.80;95.40;;;;;;2097936;28;20032;-68
2021/04/22 02:27:57;;;;;;;15.23;3.90;;;4.80;95.40;;;;;;2097707;28;20028;-68
2021/04/22 02:28:57;;;;;;;15.05;4.85;;;4.80;95.30;;;;;;2097982;28;20036;-68
2021/04/22 02:29:58;;;;;;;9.70;3.20;;;4.80;95.60;;;;;;2097483;28;20029;-68
2021/04/22 02:30:58;;;;;;;14.55;3.63;;;4.80;95.40;;;;;;2102319;28;20020;-67
2021/04/22 02:31:59;;;;;;;12.35;2.92;;;4.70;95.10;;;;;;2106028;28;20032;-68
2021/04/22 02:33:01;;;;;;;16.20;4.65;;;4.70;95.00;;;;;;2097968;28;20059;-68
2021/04/22 02:34:02;;;;;;;10.07;3.40;;;4.70;95.20;;;;;;2097470;28;20060;-68
2021/04/22 02:35:05;;;;;;;14.63;3.85;;;4.70;95.70;;;;;;2097837;28;20029;-67
2021/04/22 02:36:06;;;;;;;17.38;4.15;;;4.70;95.80;;;;;;2097642;28;20020;-67
2021/04/22 02:37:07;;;;;;;11.75;3.97;;;4.70;95.90;;;;;;2097225;28;20025;-67
2021/04/22 02:38:10;;;;;;;13.82;3.97;;;4.70;96.00;;;;;;2097032;28;20078;-68
2021/04/22 02:39:11;;;;;;;16.08;3.65;;;4.70;96.20;;;;;;2097358;28;20020;-68
2021/04/22 02:40:15;;;;;;;11.75;3.63;;;4.70;96.70;;;;;;2098564;28;20032;-68
2021/04/22 02:41:15;;;;;;;12.65;3.67;;;4.70;97.00;;;;;;2106040;28;20028;-68
2021/04/22 02:42:16;;;;;;;10.07;3.03;;;4.80;96.60;;;;;;2105273;28;20020;-67
2021/04/22 02:43:18;;;;;;;12.90;4.43;;;4.70;96.60;;;;;;2106162;28;20016;-67
2021/04/22 02:44:19;;;;;;;14.05;3.60;;;4.80;96.90;;;;;;2098507;28;20012;-67
2021/04/22 02:45:29;;;;;;;13.73;3.53;;;4.80;96.70;;;;;;2098668;28;20032;-68
2021/04/22 02:46:29;;;;;;;12.27;4.05;;;4.70;96.80;;;;;;2103476;28;20069;-68
2021/04/22 02:47:30;;;;;;;12.52;3.58;;;4.70;96.60;;;;;;2104177;28;20111;-68
2021/04/22 02:48:31;;;;;;;12.73;3.90;;;4.70;96.20;;;;;;2103282;28;20028;-68
2021/04/22 02:49:31;;;;;;;16.40;4.68;;;4.70;96.70;;;;;;2097449;28;20066;-68
2021/04/22 02:50:34;;;;;;;15.57;3.80;;;4.70;97.00;;;;;;2097250;28;20104;-68
2021/04/22 02:51:35;;;;;;;11.60;3.95;;;4.70;97.00;;;;;;2097863;28;20047;-68
2021/04/22 02:52:36;;;;;;;11.02;3.20;;;4.70;96.80;;;;;;2097295;28;20082;-67
2021/04/22 02:53:36;;;;;;;11.55;3.03;;;4.70;96.70;;;;;;2097743;28;20025;-67
2021/04/22 02:54:37;;;;;;;13.23;4.22;;;4.70;97.10;;;;;;2097357;28;20025;-68
2021/04/22 02:55:38;;;;;;;13.02;3.72;;;4.70;96.60;;;;;;2103061;28;20093;-68
2021/04/22 02:56:38;;;;;;;15.48;4.18;;;4.70;96.70;;;;;;2096451;28;20099;-68
2021/04/22 02:57:39;;;;;;;15.73;4.22;;;4.70;96.90;;;;;;2096920;28;20025;-68
2021/04/22 02:58:40;;;;;;;12.63;3.85;;;4.70;97.00;;;;;;2097105;28;20032;-68
2021/04/22 02:59:41;;;;;;;14.07;3.83;;;4.70;96.90;;;;;;2098442;28;20078;-67
2021/04/22 03:00:43;;;;;;;13.55;3.67;;;4.70;97.00;;;;;;2106248;28;20095;-68
2021/04/22 03:01:43;;;;;;;19.25;4.20;;;4.70;97.10;;;;;;2105368;28;20526;-68
2021/04/22 03:02:44;;;;;;;12.70;3.60;;;4.70;97.40;;;;;;2104376;28;20518;-67
2021/04/22 03:03:44;;;;;;;11.48;4.07;;;4.70;97.70;;;;;;2102440;28;20052;-68
2021/04/22 03:04:45;;;;;;;15.65;3.58;;;4.70;97.50;;;;;;2097450;28;20075;-68
2021/04/22 03:05:46;;;;;;;16.70;3.35;;;4.70;97.50;;;;;;2096317;28;20468;-67
2021/04/22 03:06:46;;;;;;;9.50;3.67;;;4.70;97.10;;;;;;2096742;28;20044;-67
2021/04/22 03:07:47;;;;;;;18.63;3.90;;;4.70;96.40;;;;;;2096089;28;20020;-68
2021/04/22 03:08:47;;;;;;;15.98;4.50;;;4.70;96.80;;;;;;2096647;28;20074;-68
2021/04/22 03:09:48;;;;;;;13.35;3.78;;;4.70;96.80;;;;;;2096397;28;20036;-67
2021/04/22 03:10:49;;;;;;;13.43;4.43;;;4.60;96.90;;;;;;2095525;28;20142;-68
2021/04/22 03:11:49;;;;;;;10.07;3.92;;;4.60;97.20;;;;;;2096137;28;20024;-68
2021/04/22 03:12:50;;;;;;;14.10;3.95;;;4.60;97.20;;;;;;2094946;28;20052;-68
2021/04/22 03:13:50;;;;;;;18.25;3.72;;;4.60;97.20;;;;;;2095425;28;20035;-68
2021/04/22 03:14:51;;;;;;;9.13;3.50;;;4.60;97.60;;;;;;2095739;28;20372;-67
2021/04/22 03:15:52;;;;;;;12.60;3.50;;;4.60;97.40;;;;;;2096287;28;20081;-67
2021/04/22 03:16:52;;;;;;;17.20;4.55;;;4.60;97.00;;;;;;2104727;28;20050;-67
2021/04/22 03:17:53;;;;;;;13.05;4.22;;;4.60;97.40;;;;;;2104666;28;20021;-67
2021/04/22 03:18:54;;;;;;;11.93;3.65;;;4.60;97.70;;;;;;2104872;28;20123;-67
2021/04/22 03:19:54;;;;;;;10.88;3.55;;;4.60;97.40;;;;;;2099505;28;20029;-67
2021/04/22 03:20:55;;;;;;;13.93;4.35;;;4.60;97.00;;;;;;2098077;28;20032;-67
2021/04/22 03:21:56;;;;;;;13.55;3.85;;;4.60;97.30;;;;;;2104434;28;20020;-67
2021/04/22 03:22:57;;;;;;;15.90;3.97;;;4.60;97.80;;;;;;2104124;28;20074;-68
2021/04/22 03:23:57;;;;;;;12.70;4.60;;;4.60;97.90;;;;;;2104600;28;20020;-68
2021/04/22 03:25:00;;;;;;;15.82;4.57;;;4.60;97.90;;;;;;2104370;28;20060;-68
2021/04/22 03:26:01;;;;;;;15.75;4.03;;;4.60;98.10;;;;;;2104839;28;20081;-68
2021/04/22 03:27:01;;;;;;;14.63;5.13;;;4.60;98.20;;;;;;2104723;28;20067;-68
2021/04/22 03:28:02;;;;;;;13.07;4.78;;;4.50;98.20;;;;;;2097234;28;20020;-67
2021/04/22 03:29:03;;;;;;;13.07;4.57;;;4.60;98.10;;;;;;2096475;28;20521;-68
2021/04/22 03:30:08;;;;;;;14.80;3.75;;;4.50;98.10;;;;;;2096298;28;20035;-67
2021/04/22 03:31:08;;;;;;;17.92;4.55;;;4.60;98.20;;;;;;2096246;28;20099;-68
2021/04/22 03:32:09;;;;;;;11.63;4.50;;;4.50;98.00;;;;;;2096059;28;20028;-68
2021/04/22 03:33:10;;;;;;;12.45;4.05;;;4.50;98.30;;;;;;2097575;28;20024;-68
2021/04/22 03:34:10;;;;;;;13.68;3.50;;;4.50;98.20;;;;;;2097250;28;20101;-68
2021/04/22 03:35:12;;;;;;;18.35;5.22;;;4.50;98.30;;;;;;2098073;28;20074;-68
2021/04/22 03:36:13;;;;;;;12.65;3.70;;;4.50;98.50;;;;;;2106380;28;20059;-68
2021/04/22 03:37:14;;;;;;;16.98;3.75;;;4.50;98.30;;;;;;2106309;28;20028;-68
2021/04/22 03:38:14;;;;;;;13.07;4.53;;;4.50;97.80;;;;;;2106267;28;20047;-67
2021/04/22 03:39:15;;;;;;;14.57;4.45;;;4.50;97.90;;;;;;2099628;28;20105;-67
2021/04/22 03:40:19;;;;;;;13.52;4.18;;;4.50;97.70;;;;;;2099464;28;20041;-68
2021/04/22 03:41:19;;;;;;;15.90;4.15;;;4.50;97.70;;;;;;2106382;28;20073;-68
2021/04/22 03:42:20;;;;;;;15.63;3.92;;;4.50;97.90;;;;;;2105601;28;20020;-68
2021/04/22 03:43:21;;;;;;;16.88;4.47;;;4.50;98.10;;;;;;2106165;28;20020;-67
2021/04/22 03:44:21;;;;;;;11.85;4.65;;;4.50;97.60;;;;;;2097300;28;20147;-67
2021/04/22 03:45:24;;;;;;;16.00;4.63;;;4.50;97.80;;;;;;2096865;28;20024;-67
2021/04/22 03:46:25;;;;;;;18.15;4.60;;;4.40;97.90;;;;;;2097890;28;20021;-67
2021/04/22 03:47:26;;;;;;;17.73;5.40;;;4.40;98.20;;;;;;2103181;28;20952;-67
2021/04/22 03:48:26;;;;;;;15.90;3.75;;;4.40;98.60;;;;;;2103222;28;20417;-67
2021/04/22 03:49:27;;;;;;;15.80;4.88;;;4.40;98.70;;;;;;2097906;28;20083;-67
2021/04/22 03:50:27;;;;;;;12.20;3.95;;;4.40;98.90;;;;;;2098420;28;20060;-67
2021/04/22 03:51:29;;;;;;;14.32;4.53;;;4.40;99.00;;;;;;2097273;28;20029;-67
2021/04/22 03:52:30;;;;;;;12.45;4.70;;;4.40;98.40;;;;;;2100980;28;20086;-68
2021/04/22 03:53:30;;;;;;;12.98;4.65;;;4.40;98.20;;;;;;2101856;28;20122;-68
2021/04/22 03:54:31;;;;;;;17.55;4.82;;;4.40;98.40;;;;;;2097869;28;20459;-67
2021/04/22 03:55:32;;;;;;;12.65;5.28;;;4.40;98.20;;;;;;2103827;28;20034;-67
2021/04/22 03:56:32;;;;;;;12.40;5.30;;;4.40;98.00;;;;;;2099492;28;20100;-67
2021/04/22 03:57:33;;;;;;;17.77;5.38;;;4.40;98.10;;;;;;2106119;28;20095;-67
2021/04/22 03:58:34;;;;;;;12.30;4.25;;;4.30;98.30;;;;;;2105017;28;20044;-67
2021/04/22 03:59:35;;;;;;;14.18;4.95;;;4.40;98.50;;;;;;2098695;28;20024;-67
2021/04/22 04:00:35;;;;;;;13.07;4.13;;;4.30;97.90;;;;;;2106089;28;20024;-68
2021/04/22 04:01:36;;;;;;;15.95;4.30;;;4.30;97.50;;;;;;2105767;28;20020;-68
2021/04/22 04:02:36;;;;;;;13.95;4.85;;;4.30;97.80;;;;;;2104942;28;20133;-68
2021/04/22 04:03:37;;;;;;;11.68;4.50;;;4.30;98.00;;;;;;2097324;28;20020;-67
2021/04/22 04:04:37;;;;;;;14.70;4.60;;;4.30;98.40;;;;;;2097855;28;20028;-68
2021/04/22 04:05:38;;;;;;;14.57;4.45;;;4.30;98.50;;;;;;2097520;28;20032;-68
2021/04/22 04:06:38;;;;;;;17.67;4.78;;;4.30;98.30;;;;;;2097690;28;20511;-68
2021/04/22 04:07:39;;;;;;;19.45;6.05;;;4.30;98.20;;;;;;2097489;28;20486;-67
2021/04/22 04:08:40;;;;;;;14.88;4.85;;;4.30;98.60;;;;;;2097518;28;20107;-67
2021/04/22 04:09:40;;;;;;;22.73;5.18;;;4.30;98.90;;;;;;2097765;28;20461;-67
2021/04/22 04:10:41;;;;;;;20.45;5.30;;;4.30;99.80;;;;;;2097745;28;20055;-67
2021/04/22 04:11:42;;;;;;;20.05;5.10;;;4.30;99.70;;;;;;2104237;28;20070;-67
2021/04/22 04:12:42;;;;;;;17.05;5.57;;;4.30;99.20;;;;;;2104078;28;20801;-67
2021/04/22 04:13:43;;;;;;;15.68;5.82;;;4.20;99.30;;;;;;2097495;28;20537;-67
2021/04/22 04:14:44;;;;;;;14.60;5.85;;;4.20;99.60;;;;;;2097616;28;20039;-68
2021/04/22 04:15:48;;;;;;;18.77;6.32;;;4.20;99.50;;;;;;2097471;28;20029;-68
2021/04/22 04:16:49;;;;;;;20.35;5.72;;;4.20;99.70;;;;;;2097405;28;20025;-68
2021/04/22 04:17:50;;;;;;;14.68;5.25;;;4.20;99.90;;;;;;2098170;28;20025;-68
2021/04/22 04:18:51;;;;;;;21.52;5.93;;;4.20;99.90;;;;;;2097386;28;20020;-68
2021/04/22 04:19:51;;;;;;;16.00;6.40;;;4.20;99.80;;;;;;2104856;28;20032;-68
2021/04/22 04:20:52;;;;;;;18.90;5.93;;;4.20;99.90;;;;;;2105663;28;20103;-68
2021/04/22 04:21:53;;;;;;;13.38;5.78;;;4.20;99.90;;;;;;2105646;28;20016;-67
2021/04/22 04:22:53;;;;;;;18.17;5.70;;;4.20;99.90;;;;;;2100024;28;20106;-67
2021/04/22 04:23:54;;;;;;;11.82;5.22;;;4.20;99.90;;;;;;2097994;28;20024;-67
2021/04/22 04:24:54;;;;;;;15.68;4.78;;;4.20;99.70;;;;;;2098072;28;20103;-68
2021/04/22 04:25:55;;;;;;;15.27;5.53;;;4.20;99.30;;;;;;2100355;28;20020;-68
2021/04/22 04:26:55;;;;;;;16.42;5.60;;;4.20;99.60;;;;;;2105209;28;20178;-68
2021/04/22 04:27:56;;;;;;;14.13;5.13;;;4.20;99.90;;;;;;2105382;28;20372;-68
2021/04/22 04:28:56;;;;;;;14.25;4.63;;;4.20;99.60;;;;;;2101994;28;20472;-68
2021/04/22 04:29:57;;;;;;;18.85;5.72;;;4.20;99.50;;;;;;2103889;28;20414;-68
2021/04/22 04:30:58;;;;;;;15.50;5.00;;;4.20;99.70;;;;;;2096252;28;20040;-68
2021/04/22 04:31:58;;;;;;;18.33;5.68;;;4.20;99.30;;;;;;2101325;28;20137;-68
2021/04/22 04:32:59;;;;;;;11.35;4.82;;;4.10;99.60;;;;;;2091651;28;20029;-68
2021/04/22 04:34:00;;;;;;;18.52;6.55;;;4.10;99.60;;;;;;2101517;28;20922;-68
2021/04/22 04:35:00;;;;;;;18.02;5.13;;;4.20;99.90;;;;;;2103581;28;20032;-68
2021/04/22 04:36:01;;;;;;;17.35;5.57;;;4.10;99.90;;;;;;2097034;28;20119;-68
2021/04/22 04:37:03;;;;;;;15.82;6.03;;;4.10;99.70;;;;;;2096637;28;20063;-68
2021/04/22 04:38:04;;;;;;;16.65;6.03;;;4.10;99.70;;;;;;2097076;28;20020;-67
2021/04/22 04:39:05;;;;;;;19.17;6.28;;;4.10;99.90;;;;;;2096630;28;20031;-68
2021/04/22 04:40:08;;;;;;;17.33;6.63;;;4.10;99.90;;;;;;2096987;28;20036;-68
2021/04/22 04:41:09;;;;;;;20.15;7.05;;;4.10;99.90;;;;;;2096812;28;20047;-68
2021/04/22 04:42:09;;;;;;;23.80;7.43;;;4.10;99.90;;;;;;2096644;28;20025;-68
2021/04/22 04:43:10;;;;;;;19.52;7.32;;;4.10;99.90;;;;;;2095756;28;20031;-67
2021/04/22 04:44:11;;;;;;;21.13;6.70;;;4.10;99.90;;;;;;2097036;28;20459;-68
2021/04/22 04:45:16;;;;;;;28.90;7.68;;;4.10;99.90;;;;;;2091476;28;20016;-68
2021/04/22 04:46:18;;;;;;;24.20;7.70;;;4.10;99.90;;;;;;2093840;28;20031;-68
2021/04/22 04:47:18;;;;;;;22.50;6.93;;;4.10;99.90;;;;;;2095258;28;20097;-67
2021/04/22 04:48:19;;;;;;;24.95;8.05;;;4.20;99.90;;;;;;2093705;28;20021;-68
2021/04/22 04:49:20;;;;;;;28.92;8.70;;;4.20;99.90;;;;;;2091207;28;20075;-67
2021/04/22 04:50:21;;;;;;;21.10;7.68;;;4.20;99.90;;;;;;2090212;28;20063;-68
2021/04/22 04:51:21;;;;;;;21.50;7.63;;;4.20;99.90;;;;;;2090019;28;20016;-68
2021/04/22 04:52:22;;;;;;;27.33;8.45;;;4.20;99.90;;;;;;2092472;28;20017;-68
2021/04/22 04:53:22;;;;;;;18.80;7.63;;;4.20;99.90;;;;;;2091843;28;20029;-68
2021/04/22 04:54:23;;;;;;;18.02;7.28;;;4.20;99.90;;;;;;2092471;28;20045;-68
2021/04/22 04:55:24;;;;;;;23.33;8.43;;;4.20;99.90;;;;;;2091497;28;20028;-68
2021/04/22 04:56:24;;;;;;;22.17;8.13;;;4.30;99.90;;;;;;2093276;28;20092;-68
2021/04/22 04:57:25;;;;;;;24.15;8.48;;;4.20;99.90;;;;;;2092278;28;20021;-68
2021/04/22 04:58:25;;;;;;;27.20;7.63;;;4.30;99.90;;;;;;2094140;28;20444;-68
2021/04/22 04:59:26;;;;;;;16.10;7.32;;;4.30;99.90;;;;;;2098663;28;20048;-68
2021/04/22 05:00:26;;;;;;;17.17;7.35;;;4.30;99.90;;;;;;2097776;28;20053;-68
2021/04/22 05:01:27;;;;;;;20.30;8.27;;;4.30;99.90;;;;;;2095688;28;20082;-68
2021/04/22 05:02:28;;;;;;;17.88;7.80;;;4.40;99.90;;;;;;2095759;28;20502;-68
2021/04/22 05:03:28;;;;;;;21.15;7.40;;;4.40;99.90;;;;;;2095788;28;20486;-68
2021/04/22 05:04:29;;;;;;;18.95;7.50;;;4.40;99.90;;;;;;2096291;28;20493;-68
2021/04/22 05:05:29;;;;;;;21.98;7.25;;;4.40;99.90;;;;;;2096861;28;20028;-68
2021/04/22 05:06:30;;;;;;;20.23;7.05;;;4.40;99.90;;;;;;2098122;28;20098;-68
2021/04/22 05:07:31;;;;;;;17.70;7.07;;;4.40;99.90;;;;;;2097174;28;20056;-68
2021/04/22 05:08:32;;;;;;;21.77;7.70;;;4.40;99.90;;;;;;2096987;28;20059;-68
2021/04/22 05:09:32;;;;;;;21.58;7.20;;;4.50;99.90;;;;;;2097796;28;20513;-68
2021/04/22 05:10:33;;;;;;;21.98;7.30;;;4.50;99.90;;;;;;2097870;28;20729;-68
2021/04/22 05:11:34;;;;;;;22.83;7.60;;;4.50;99.90;;;;;;2097765;28;20028;-68
2021/04/22 05:12:35;;;;;;;27.33;7.07;;;4.60;99.90;;;;;;2096704;28;20046;-68
2021/04/22 05:13:35;;;;;;;23.70;7.15;;;4.60;99.90;;;;;;2094629;28;20430;-68
2021/04/22 05:14:36;;;;;;;26.02;8.00;;;4.60;99.90;;;;;;2093497;28;20095;-68
2021/04/22 05:15:36;;;;;;;18.77;7.60;;;4.60;99.90;;;;;;2094706;28;20530;-68
2021/04/22 05:16:37;;;;;;;17.15;7.30;;;4.70;99.90;;;;;;2095850;28;20077;-68
2021/04/22 05:17:38;;;;;;;17.33;6.78;;;4.70;99.90;;;;;;2095315;28;20490;-68
2021/04/22 05:18:38;;;;;;;25.63;8.18;;;4.70;99.90;;;;;;2093740;28;20028;-68